createdAt,value
2023-03-06T00:00:07.749Z,101048.19
2023-03-06T00:02:34.256Z,101063.63
2023-03-06T00:05:00.761Z,101053.75
2023-03-06T00:07:27.240Z,101041.09
2023-03-06T00:09:53.713Z,101038.78
2023-03-06T00:12:20.203Z,101040.97
2023-03-06T00:14:46.730Z,101038.63
2023-03-06T00:17:13.162Z,101035.28
2023-03-06T00:19:39.608Z,101036.25
2023-03-06T00:22:06.110Z,101034.91
2023-03-06T00:24:32.573Z,101024.25
2023-03-06T00:26:59.027Z,101028.03
2023-03-06T00:29:25.855Z,101018.97
2023-03-06T00:31:52.332Z,101013.47
2023-03-06T00:34:18.859Z,101012.13
2023-03-06T00:36:45.416Z,101013.09
2023-03-06T00:39:11.954Z,101011.75
2023-03-06T00:41:38.584Z,101008.63
2023-03-06T00:44:05.415Z,100999.53
2023-03-06T00:46:31.875Z,100986.91
2023-03-06T00:48:58.434Z,100978.06
2023-03-06T00:51:24.975Z,100975.91
2023-03-06T00:53:51.559Z,100972.75
2023-03-06T00:56:19.937Z,100982.03
2023-03-06T00:58:46.724Z,100969.75
2023-03-06T01:01:13.278Z,100977.47
2023-03-06T01:03:39.855Z,100968.19
2023-03-06T01:06:06.734Z,100967.19
2023-03-06T01:08:33.248Z,100965.97
2023-03-06T01:10:59.826Z,100957.47
2023-03-06T01:13:26.460Z,100952.91
2023-03-06T01:15:53.314Z,100956.25
2023-03-06T01:18:19.822Z,100955.25
2023-03-06T01:20:46.802Z,100945.78
2023-03-06T01:23:13.201Z,100948.09
2023-03-06T01:25:39.634Z,100946.75
2023-03-06T01:28:06.137Z,100945.41
2023-03-06T01:30:32.795Z,100948.75
2023-03-06T01:32:59.434Z,100948.19
2023-03-06T01:35:25.990Z,100945.81
2023-03-06T01:37:52.454Z,100945.03
2023-03-06T01:40:19.109Z,100938.19
2023-03-06T01:42:48.767Z,100941.53
2023-03-06T01:45:15.201Z,100950.47
2023-03-06T01:47:41.761Z,100942.19
2023-03-06T01:50:11.397Z,100941.25
2023-03-06T01:52:59.753Z,100938.88
2023-03-06T01:55:30.932Z,100938.31
2023-03-06T01:58:00.634Z,100936.19
2023-03-06T02:00:29.479Z,100932.47
2023-03-06T02:03:05.688Z,100931.91
2023-03-06T02:05:33.362Z,100920.91
2023-03-06T02:08:00.954Z,100914.00
2023-03-06T02:10:27.484Z,100912.63
2023-03-06T02:12:54.530Z,100908.28
2023-03-06T02:15:24.284Z,100913.63
2023-03-06T02:17:52.421Z,100905.91
2023-03-06T02:20:28.174Z,100908.50
2023-03-06T02:23:04.323Z,100907.91
2023-03-06T02:25:42.627Z,100904.78
2023-03-06T02:28:16.261Z,100913.66
2023-03-06T02:30:44.428Z,100899.69
2023-03-06T02:33:17.271Z,100902.03
2023-03-06T02:35:49.555Z,100902.25
2023-03-06T02:38:18.848Z,100901.84
2023-03-06T02:40:48.533Z,100891.00
2023-03-06T02:43:18.370Z,100893.34
2023-03-06T02:45:48.035Z,100888.56
2023-03-06T02:48:16.680Z,100892.50
2023-03-06T02:50:44.228Z,100883.00
2023-03-06T02:53:13.169Z,100877.00
2023-03-06T02:55:40.416Z,100878.16
2023-03-06T02:58:07.578Z,100871.59
2023-03-06T03:00:35.867Z,100868.16
2023-03-06T03:03:02.588Z,100862.16
2023-03-06T03:05:28.999Z,100851.44
2023-03-06T03:07:55.498Z,100852.13
2023-03-06T03:10:22.156Z,100854.09
2023-03-06T03:12:48.965Z,100845.72
2023-03-06T03:15:16.008Z,100848.63
2023-03-06T03:17:43.487Z,100836.91
2023-03-06T03:20:13.710Z,100839.38
2023-03-06T03:22:40.355Z,100828.88
2023-03-06T03:25:07.354Z,100829.81
2023-03-06T03:27:34.219Z,100828.56
2023-03-06T03:30:00.858Z,100819.84
2023-03-06T03:32:27.862Z,100825.13
2023-03-06T03:34:57.946Z,100812.81
2023-03-06T03:37:24.513Z,100814.97
2023-03-06T03:39:51.194Z,100812.16
2023-03-06T03:42:17.772Z,100809.94
2023-03-06T03:44:44.458Z,100813.84
2023-03-06T03:47:10.940Z,100806.94
2023-03-06T03:49:37.563Z,100810.63
2023-03-06T03:52:04.305Z,100803.47
2023-03-06T03:54:31.117Z,100799.44
2023-03-06T03:56:57.745Z,100802.59
2023-03-06T03:59:24.493Z,100796.97
2023-03-06T04:01:52.114Z,100796.75
2023-03-06T04:04:18.702Z,100804.06
2023-03-06T04:06:45.191Z,100790.94
2023-03-06T04:09:11.651Z,100793.28
2023-03-06T04:11:38.715Z,100796.78
2023-03-06T04:14:05.503Z,100786.47
2023-03-06T04:16:32.098Z,100789.41
2023-03-06T04:18:58.670Z,100790.38
2023-03-06T04:21:25.124Z,100785.59
2023-03-06T04:23:52.001Z,100787.94
2023-03-06T04:26:18.499Z,100779.97
2023-03-06T04:28:45.115Z,100779.53
2023-03-06T04:31:13.541Z,100772.59
2023-03-06T04:33:40.241Z,100770.00
2023-03-06T04:36:06.994Z,100765.66
2023-03-06T04:38:33.755Z,100767.78
2023-03-06T04:41:00.334Z,100765.22
2023-03-06T04:43:26.979Z,100759.06
2023-03-06T04:45:53.493Z,100756.50
2023-03-06T04:48:19.970Z,100769.13
2023-03-06T04:50:46.908Z,100755.25
2023-03-06T04:53:14.565Z,100761.94
2023-03-06T04:55:40.994Z,100756.78
2023-03-06T04:58:07.594Z,100748.84
2023-03-06T05:00:34.280Z,100745.28
2023-03-06T05:03:01.536Z,100758.25
2023-03-06T05:05:29.095Z,100749.75
2023-03-06T05:07:55.828Z,100750.09
2023-03-06T05:10:23.403Z,100751.41
2023-03-06T05:12:50.055Z,100745.50
2023-03-06T05:15:17.120Z,100747.81
2023-03-06T05:17:44.326Z,100740.91
2023-03-06T05:20:12.466Z,100745.78
2023-03-06T05:22:39.654Z,100736.06
2023-03-06T05:25:07.441Z,100742.56
2023-03-06T05:27:33.985Z,100745.69
2023-03-06T05:30:00.802Z,100746.25
2023-03-06T05:32:27.330Z,100742.66
2023-03-06T05:34:54.371Z,100742.75
2023-03-06T05:37:22.983Z,100734.47
2023-03-06T05:39:50.435Z,100729.31
2023-03-06T05:42:17.005Z,100727.53
2023-03-06T05:44:43.860Z,100723.41
2023-03-06T05:47:11.990Z,100726.75
2023-03-06T05:49:38.790Z,100725.97
2023-03-06T05:52:06.551Z,100728.22
2023-03-06T05:54:35.012Z,100733.03
2023-03-06T05:57:02.701Z,100727.78
2023-03-06T05:59:29.183Z,100725.44
2023-03-06T06:01:56.291Z,100725.88
2023-03-06T06:04:24.362Z,100726.09
2023-03-06T06:06:53.363Z,100725.00
2023-03-06T06:09:19.827Z,100732.97
2023-03-06T06:11:46.684Z,100736.53
2023-03-06T06:14:13.105Z,100741.69
2023-03-06T06:16:40.566Z,100738.56
2023-03-06T06:19:07.055Z,100747.38
2023-03-06T06:21:33.536Z,100746.41
2023-03-06T06:24:00.847Z,100744.94
2023-03-06T06:26:27.320Z,100743.22
2023-03-06T06:28:53.744Z,100749.50
2023-03-06T06:31:20.262Z,100753.19
2023-03-06T06:33:46.685Z,100749.38
2023-03-06T06:36:18.737Z,100750.81
2023-03-06T06:38:45.313Z,100741.84
2023-03-06T06:41:38.838Z,100752.22
2023-03-06T06:43:59.279Z,100758.03
2023-03-06T06:47:10.756Z,100753.78
2023-03-06T06:49:14.885Z,100749.72
2023-03-06T06:51:41.829Z,100752.38
2023-03-06T06:54:08.654Z,100746.34
2023-03-06T06:56:35.295Z,100747.19
2023-03-06T06:59:15.698Z,100745.97
2023-03-06T07:01:43.675Z,100751.50
2023-03-06T07:04:13.092Z,100752.13
2023-03-06T07:06:39.580Z,100755.28
2023-03-06T07:09:06.270Z,100758.50
2023-03-06T07:11:32.914Z,100755.91
2023-03-06T07:13:59.457Z,100763.75
2023-03-06T07:16:25.946Z,100760.47
2023-03-06T07:18:52.505Z,100751.69
2023-03-06T07:21:19.325Z,100755.91
2023-03-06T07:23:45.903Z,100760.72
2023-03-06T07:26:15.362Z,100764.13
2023-03-06T07:28:51.940Z,100764.00
2023-03-06T07:31:22.360Z,100765.88
2023-03-06T07:33:50.723Z,100767.72
2023-03-06T07:36:17.897Z,100763.94
2023-03-06T07:38:44.736Z,100769.22
2023-03-06T07:41:22.206Z,100771.97
2023-03-06T07:43:49.846Z,100764.03
2023-03-06T07:46:31.519Z,100776.13
2023-03-06T07:49:28.564Z,100764.53
2023-03-06T07:51:55.095Z,100763.59
2023-03-06T07:54:43.479Z,100768.09
2023-03-06T07:57:10.085Z,100765.16
2023-03-06T07:59:37.039Z,100765.59
2023-03-06T08:02:03.770Z,100767.53
2023-03-06T08:04:30.606Z,100773.84
2023-03-06T08:07:00.921Z,100769.78
2023-03-06T08:09:27.564Z,100776.44
2023-03-06T08:11:54.063Z,100771.78
2023-03-06T08:14:20.633Z,100772.69
2023-03-06T08:16:48.953Z,100772.81
2023-03-06T08:19:15.792Z,100774.88
2023-03-06T08:21:42.486Z,100776.16
2023-03-06T08:24:09.020Z,100766.03
2023-03-06T08:26:36.079Z,100773.91
2023-03-06T08:29:03.449Z,100779.91
2023-03-06T08:31:33.974Z,100775.56
2023-03-06T08:34:03.557Z,100771.16
2023-03-06T08:36:30.346Z,100769.38
2023-03-06T08:38:56.956Z,100777.91
2023-03-06T08:41:23.752Z,100776.31
2023-03-06T08:43:50.942Z,100774.78
2023-03-06T08:46:19.580Z,100776.16
2023-03-06T08:48:50.350Z,100770.19
2023-03-06T08:51:23.772Z,100770.28
2023-03-06T08:53:52.172Z,100774.50
2023-03-06T08:56:26.259Z,100768.63
2023-03-06T08:59:05.782Z,100768.44
2023-03-06T09:01:35.138Z,100763.88
2023-03-06T09:04:03.739Z,100769.41
2023-03-06T09:06:33.000Z,100761.16
2023-03-06T09:09:00.225Z,100766.66
2023-03-06T09:11:27.309Z,100767.72
2023-03-06T09:13:54.619Z,100764.16
2023-03-06T09:16:21.186Z,100771.66
2023-03-06T09:18:50.318Z,100769.16
2023-03-06T09:21:16.899Z,100770.78
2023-03-06T09:23:45.506Z,100770.75
2023-03-06T09:26:12.667Z,100759.31
2023-03-06T09:28:40.309Z,100771.47
2023-03-06T09:31:14.752Z,100770.13
2023-03-06T09:33:41.604Z,100767.19
2023-03-06T09:36:10.723Z,100770.28
2023-03-06T09:38:37.287Z,100766.41
2023-03-06T09:41:27.596Z,100767.63
2023-03-06T09:44:04.813Z,100764.88
2023-03-06T09:46:44.582Z,100763.38
2023-03-06T09:49:48.293Z,100764.25
2023-03-06T09:52:38.647Z,100762.97
2023-03-06T09:55:11.638Z,100762.19
2023-03-06T09:57:45.155Z,100765.56
2023-03-06T10:00:16.373Z,100764.03
2023-03-06T10:03:12.175Z,100767.91
2023-03-06T10:05:47.297Z,100770.53
2023-03-06T10:08:55.060Z,100767.69
2023-03-06T10:11:45.703Z,100772.59
2023-03-06T10:14:16.149Z,100771.06
2023-03-06T10:16:42.714Z,100768.16
2023-03-06T10:19:20.012Z,100772.84
2023-03-06T10:21:57.195Z,100774.41
2023-03-06T10:24:50.312Z,100768.72
2023-03-06T10:27:56.028Z,100766.66
2023-03-06T10:30:40.400Z,100768.97
2023-03-06T10:33:29.041Z,100760.38
2023-03-06T10:35:56.680Z,100757.75
2023-03-06T10:38:26.740Z,100754.59
2023-03-06T10:41:11.597Z,100762.38
2023-03-06T10:44:04.352Z,100753.00
2023-03-06T10:46:46.705Z,100755.00
2023-03-06T10:49:36.205Z,100746.63
2023-03-06T10:52:22.527Z,100751.25
2023-03-06T10:54:49.151Z,100743.00
2023-03-06T10:57:23.873Z,100746.88
2023-03-06T10:59:53.161Z,100743.34
2023-03-06T11:02:41.169Z,100743.28
2023-03-06T11:05:19.805Z,100745.78
2023-03-06T11:07:55.029Z,100744.84
2023-03-06T11:10:23.271Z,100742.75
2023-03-06T11:13:03.014Z,100732.88
2023-03-06T11:15:30.212Z,100729.66
2023-03-06T11:18:01.760Z,100728.00
2023-03-06T11:20:51.024Z,100732.13
2023-03-06T11:23:43.785Z,100734.06
2023-03-06T11:26:16.484Z,100722.53
2023-03-06T11:29:17.111Z,100720.75
2023-03-06T11:31:52.097Z,100716.50
2023-03-06T11:34:28.644Z,100719.09
2023-03-06T11:37:13.640Z,100709.50
2023-03-06T11:40:05.188Z,100711.34
2023-03-06T11:42:41.960Z,100699.53
2023-03-06T11:45:27.113Z,100701.41
2023-03-06T11:48:12.338Z,100698.09
2023-03-06T11:50:43.244Z,100695.22
2023-03-06T11:53:16.566Z,100694.41
2023-03-06T11:55:56.128Z,100698.06
2023-03-06T11:58:58.034Z,100694.41
2023-03-06T12:01:48.004Z,100691.34
2023-03-06T12:04:20.644Z,100688.38
2023-03-06T12:06:50.152Z,100692.34
2023-03-06T12:09:32.614Z,100686.88
2023-03-06T12:14:50.849Z,100678.13
2023-03-06T12:17:26.295Z,100679.56
2023-03-06T12:20:22.060Z,100667.47
2023-03-06T12:23:02.576Z,100670.75
2023-03-06T12:25:45.027Z,100667.97
2023-03-06T12:28:36.178Z,100677.56
2023-03-06T12:31:31.258Z,100668.03
2023-03-06T12:34:26.786Z,100666.25
2023-03-06T12:37:11.250Z,100662.47
2023-03-06T12:39:55.516Z,100667.25
2023-03-06T12:43:06.475Z,100657.25
2023-03-06T12:45:39.516Z,100657.25
2023-03-06T12:48:15.187Z,100657.69
2023-03-06T12:50:44.531Z,100653.44
2023-03-06T12:53:27.730Z,100643.56
2023-03-06T12:55:56.091Z,100651.72
2023-03-06T12:58:31.813Z,100642.03
2023-03-06T13:01:29.014Z,100640.09
2023-03-06T13:04:05.090Z,100626.09
2023-03-06T13:06:54.356Z,100631.44
2023-03-06T13:09:30.163Z,100624.56
2023-03-06T13:12:24.759Z,100626.97
2023-03-06T13:14:58.381Z,100625.88
2023-03-06T13:17:39.025Z,100612.56
2023-03-06T13:20:14.825Z,100621.16
2023-03-06T13:22:43.164Z,100612.66
2023-03-06T13:25:19.552Z,100603.09
2023-03-06T13:27:52.212Z,100605.22
2023-03-06T13:30:36.871Z,100599.50
2023-03-06T13:33:33.022Z,100590.59
2023-03-06T13:36:19.451Z,100586.31
2023-03-06T13:38:49.234Z,100577.28
2023-03-06T13:41:22.111Z,100569.50
2023-03-06T13:43:50.431Z,100574.56
2023-03-06T13:46:30.913Z,100570.00
2023-03-06T13:49:18.484Z,100562.50
2023-03-06T13:51:54.006Z,100570.91
2023-03-06T13:54:31.979Z,100566.06
2023-03-06T13:57:29.437Z,100556.59
2023-03-06T14:00:14.563Z,100559.13
2023-03-06T14:03:15.273Z,100560.88
2023-03-06T14:05:45.543Z,100552.53
2023-03-06T14:08:16.912Z,100548.00
2023-03-06T14:10:45.195Z,100548.78
2023-03-06T14:13:23.306Z,100541.50
2023-03-06T14:15:54.968Z,100540.03
2023-03-06T14:18:26.310Z,100531.56
2023-03-06T14:21:01.767Z,100531.34
2023-03-06T14:23:42.426Z,100525.16
2023-03-06T14:26:21.636Z,100528.09
2023-03-06T14:29:01.422Z,100528.44
2023-03-06T14:31:31.953Z,100523.28
2023-03-06T14:34:05.338Z,100527.38
2023-03-06T14:36:36.102Z,100518.91
2023-03-06T14:39:08.869Z,100507.38
2023-03-06T14:41:36.637Z,100499.06
2023-03-06T14:44:12.128Z,100502.56
2023-03-06T14:46:38.614Z,100498.97
2023-03-06T14:49:08.712Z,100513.75
2023-03-06T14:51:42.791Z,100504.69
2023-03-06T14:54:16.044Z,100509.78
2023-03-06T14:56:46.257Z,100505.00
2023-03-06T14:59:16.527Z,100500.22
2023-03-06T15:01:48.623Z,100498.66
2023-03-06T15:04:28.311Z,100488.84
2023-03-06T15:06:56.495Z,100494.59
2023-03-06T15:09:33.114Z,100488.41
2023-03-06T15:12:02.232Z,100479.56
2023-03-06T15:14:40.699Z,100468.63
2023-03-06T15:17:23.699Z,100468.56
2023-03-06T15:19:54.540Z,100465.63
2023-03-06T15:22:27.363Z,100471.56
2023-03-06T15:24:54.864Z,100468.47
2023-03-06T15:27:28.084Z,100461.28
2023-03-06T15:30:13.750Z,100463.38
2023-03-06T15:32:42.616Z,100468.25
2023-03-06T15:35:24.552Z,100466.72
2023-03-06T15:37:52.055Z,100459.53
2023-03-06T15:40:24.216Z,100458.28
2023-03-06T15:42:50.823Z,100459.09
2023-03-06T15:45:20.581Z,100452.63
2023-03-06T15:47:49.381Z,100450.03
2023-03-06T15:50:20.860Z,100446.69
2023-03-06T15:52:48.509Z,100446.97
2023-03-06T15:55:17.517Z,100439.22
2023-03-06T15:57:54.187Z,100433.53
2023-03-06T16:00:27.733Z,100439.25
2023-03-06T16:02:58.625Z,100432.00
2023-03-06T16:05:26.699Z,100436.16
2023-03-06T16:07:53.602Z,100422.16
2023-03-06T16:10:25.897Z,100429.16
2023-03-06T16:12:56.424Z,100427.91
2023-03-06T16:15:28.773Z,100419.88
2023-03-06T16:18:00.130Z,100417.81
2023-03-06T16:20:28.967Z,100419.38
2023-03-06T16:22:56.105Z,100426.34
2023-03-06T16:25:24.995Z,100422.22
2023-03-06T16:28:03.368Z,100417.53
2023-03-06T16:30:32.189Z,100411.34
2023-03-06T16:32:59.556Z,100420.91
2023-03-06T16:35:26.764Z,100423.75
2023-03-06T16:37:53.247Z,100413.38
2023-03-06T16:40:22.144Z,100413.88
2023-03-06T16:42:50.342Z,100412.06
2023-03-06T16:45:18.899Z,100404.25
2023-03-06T16:47:47.058Z,100408.41
2023-03-06T16:50:26.467Z,100395.72
2023-03-06T16:52:55.034Z,100394.44
2023-03-06T16:55:29.019Z,100401.94
2023-03-06T16:57:55.601Z,100396.72
2023-03-06T17:00:24.764Z,100394.63
2023-03-06T17:02:52.280Z,100392.31
2023-03-06T17:05:19.636Z,100399.81
2023-03-06T17:07:46.188Z,100395.94
2023-03-06T17:10:15.369Z,100378.84
2023-03-06T17:12:42.674Z,100382.19
2023-03-06T17:15:10.952Z,100375.97
2023-03-06T17:17:38.762Z,100370.28
2023-03-06T17:20:08.068Z,100370.56
2023-03-06T17:22:36.329Z,100362.75
2023-03-06T17:25:05.201Z,100359.91
2023-03-06T17:27:31.680Z,100356.78
2023-03-06T17:29:58.741Z,100357.81
2023-03-06T17:32:26.057Z,100351.06
2023-03-06T17:34:52.633Z,100347.72
2023-03-06T17:37:20.095Z,100347.72
2023-03-06T17:39:46.731Z,100338.66
2023-03-06T17:42:13.307Z,100346.13
2023-03-06T17:44:40.117Z,100350.78
2023-03-06T17:47:06.909Z,100338.34
2023-03-06T17:49:33.597Z,100337.59
2023-03-06T17:52:02.750Z,100331.66
2023-03-06T17:54:30.228Z,100329.56
2023-03-06T17:57:01.137Z,100328.00
2023-03-06T17:59:28.605Z,100331.59
2023-03-06T18:01:59.273Z,100333.91
2023-03-06T18:04:26.173Z,100333.38
2023-03-06T18:06:52.872Z,100323.56
2023-03-06T18:09:19.480Z,100323.03
2023-03-06T18:11:51.957Z,100322.50
2023-03-06T18:14:18.547Z,100320.41
2023-03-06T18:19:27.660Z,100314.97
2023-03-06T18:22:05.116Z,100311.09
2023-03-06T18:24:32.069Z,100309.50
2023-03-06T18:32:25.159Z,100301.47
2023-03-06T18:34:53.021Z,100310.75
2023-03-06T18:59:27.733Z,100256.38
2023-03-06T19:01:57.639Z,100256.84
2023-03-06T19:04:25.586Z,100252.44
2023-03-06T19:06:52.945Z,100257.63
2023-03-06T19:09:19.576Z,100238.47
2023-03-06T19:11:46.930Z,100237.47
2023-03-06T19:14:14.992Z,100233.31
2023-03-06T19:16:42.086Z,100234.59
2023-03-06T19:19:08.702Z,100224.53
2023-03-06T19:21:35.265Z,100223.75
2023-03-06T19:24:02.415Z,100223.22
2023-03-06T19:26:29.002Z,100220.34
2023-03-06T19:28:55.665Z,100210.03
2023-03-06T19:31:25.262Z,100214.72
2023-03-06T19:33:53.521Z,100210.03
2023-03-06T19:36:23.753Z,100201.53
2023-03-06T19:38:54.633Z,100204.59
2023-03-06T19:41:21.175Z,100189.63
2023-03-06T19:43:52.921Z,100197.59
2023-03-06T19:46:20.923Z,100201.19
2023-03-06T19:48:47.624Z,100187.25
2023-03-06T19:51:14.463Z,100182.59
2023-03-06T19:53:41.248Z,100182.59
2023-03-06T19:56:11.476Z,100176.38
2023-03-06T19:58:38.368Z,100170.69
2023-03-06T20:01:08.406Z,100154.22
2023-03-06T20:03:34.969Z,100158.59
2023-03-06T20:06:01.592Z,100144.38
2023-03-06T20:08:28.195Z,100137.69
2023-03-06T20:10:54.723Z,100134.56
2023-03-06T20:13:21.265Z,100130.94
2023-03-06T20:15:47.833Z,100122.97
2023-03-06T20:18:14.446Z,100120.16
2023-03-06T20:20:40.967Z,100118.09
2023-03-06T20:23:07.518Z,100112.94
2023-03-06T20:25:37.805Z,100109.06
2023-03-06T20:28:04.622Z,100101.59
2023-03-06T20:30:37.719Z,100096.94
2023-03-06T20:33:05.323Z,100096.97
2023-03-06T20:35:32.063Z,100088.19
2023-03-06T20:37:59.772Z,100075.03
2023-03-06T20:40:26.510Z,100070.16
2023-03-06T20:42:53.300Z,100082.56
2023-03-06T20:45:19.837Z,100071.19
2023-03-06T20:47:47.215Z,100068.13
2023-03-06T20:50:15.450Z,100049.03
2023-03-06T20:52:42.038Z,100053.41
2023-03-06T20:55:09.073Z,100055.50
2023-03-06T20:57:35.688Z,100050.34
2023-03-06T21:00:02.541Z,100044.41
2023-03-06T21:02:28.980Z,100037.19
2023-03-06T21:04:55.458Z,100033.59
2023-03-06T21:07:22.457Z,100028.19
2023-03-06T21:09:49.789Z,100043.91
2023-03-06T21:12:16.641Z,100036.69
2023-03-06T21:14:43.132Z,100037.19
2023-03-06T21:17:09.629Z,100032.03
2023-03-06T21:19:36.886Z,100029.72
2023-03-06T21:22:03.508Z,100008.81
2023-03-06T21:24:30.006Z,100018.91
2023-03-06T21:26:56.427Z,100013.22
2023-03-06T21:29:22.904Z,100004.44
2023-03-06T21:31:49.358Z,100007.53
2023-03-06T21:34:15.890Z,100001.09
2023-03-06T21:36:43.439Z,100004.19
2023-03-06T21:39:10.273Z,99992.84
2023-03-06T21:41:38.159Z,99995.41
2023-03-06T21:44:06.082Z,99993.88
2023-03-06T21:46:33.065Z,99993.34
2023-03-06T21:49:01.083Z,99998.00
2023-03-06T21:51:27.576Z,100002.88
2023-03-06T21:53:55.005Z,99994.38
2023-03-06T21:56:24.971Z,99999.25
2023-03-06T21:58:51.558Z,100002.88
2023-03-06T22:01:21.878Z,99988.94
2023-03-06T22:03:48.697Z,99991.03
2023-03-06T22:06:17.903Z,99997.47
2023-03-06T22:08:44.628Z,99990.22
2023-03-06T22:11:14.407Z,99988.16
2023-03-06T22:13:42.077Z,99994.88
2023-03-06T22:16:09.351Z,99985.31
2023-03-06T22:18:35.976Z,99979.09
2023-03-06T22:21:10.604Z,99977.81
2023-03-06T22:23:37.141Z,99974.72
2023-03-06T22:26:06.922Z,99975.75
2023-03-06T22:28:33.547Z,99977.56
2023-03-06T22:31:05.475Z,99969.31
2023-03-06T22:33:32.075Z,99973.44
2023-03-06T22:36:08.002Z,99972.13
2023-03-06T22:38:36.231Z,99966.97
2023-03-06T22:41:03.537Z,99974.97
2023-03-06T22:43:30.197Z,99958.44
2023-03-06T22:46:04.419Z,99963.38
2023-03-06T22:48:31.544Z,99966.97
2023-03-06T22:51:02.975Z,99967.50
2023-03-06T22:53:29.561Z,99956.66
2023-03-06T22:56:00.177Z,99957.69
2023-03-06T22:58:28.462Z,99957.94
2023-03-06T23:00:54.909Z,99956.91
2023-03-06T23:03:21.394Z,99955.13
2023-03-06T23:05:47.890Z,99949.97
2023-03-06T23:08:14.908Z,99949.44
2023-03-06T23:10:41.358Z,99951.75
2023-03-06T23:13:07.817Z,99944.50
2023-03-06T23:15:35.871Z,99953.56
2023-03-06T23:18:02.611Z,99955.63
2023-03-06T23:20:29.127Z,99955.38
2023-03-06T23:22:55.625Z,99953.03
2023-03-06T23:25:22.257Z,99950.72
2023-03-06T23:27:48.840Z,99950.72
2023-03-06T23:30:15.868Z,99938.06
2023-03-06T23:32:44.850Z,99954.09
2023-03-06T23:35:12.285Z,99949.44
2023-03-06T23:37:38.725Z,99952.53
2023-03-06T23:40:07.826Z,99941.69
2023-03-06T23:42:34.315Z,99940.38
2023-03-06T23:45:01.626Z,99939.63
2023-03-06T23:47:32.329Z,99944.78
2023-03-06T23:49:58.821Z,99936.53
2023-03-06T23:52:25.377Z,99937.53
2023-03-06T23:54:51.774Z,99946.84
2023-03-06T23:57:18.240Z,99935.97
2023-03-06T23:59:45.291Z,99939.84
